Time;durP1;ratioP1;P1;durP2;ratioP2;P2;SDS_P1;SDS_P2;PMS_P1;PMS_P2;Temp;Humidity;BMP_temperature;BMP_pressure;BME280_temperature;BME280_humidity;BME280_pressure;Samples;Min_cycle;Max_cycle;Signal;HPM_P1;HPM_P2
2022/09/12 00:00:05;;;;;;;0.52;0.40;;;;;;;;;;4147474;28;20517;-42
2022/09/12 00:02:12;;;;;;;0.73;0.30;;;;;;;;;;4147252;28;20097;-42
2022/09/12 00:04:14;;;;;;;0.47;0.40;;;;;;;;;;4147368;28;20468;-42
2022/09/12 00:06:22;;;;;;;0.20;0.20;;;;;;;;;;4147311;28;20054;-42
2022/09/12 00:08:23;;;;;;;0.50;0.40;;;;;;;;;;4147524;28;20493;-41
2022/09/12 00:10:24;;;;;;;0.50;0.40;;;;;;;;;;4146144;28;20108;-42
2022/09/12 00:12:26;;;;;;;0.50;0.40;;;;;;;;;;4146399;28;20061;-41
2022/09/12 00:14:27;;;;;;;0.57;0.38;;;;;;;;;;4147527;28;20054;-41
2022/09/12 00:16:30;;;;;;;0.82;0.40;;;;;;;;;;4146053;28;20054;-42
2022/09/12 00:18:32;;;;;;;0.55;0.40;;;;;;;;;;4146698;28;20180;-41
2022/09/12 00:20:33;;;;;;;0.60;0.30;;;;;;;;;;4147420;28;20068;-42
2022/09/12 00:22:35;;;;;;;0.40;0.30;;;;;;;;;;4146252;28;20065;-42
2022/09/12 00:24:36;;;;;;;0.73;0.50;;;;;;;;;;4146218;28;20133;-42
2022/09/12 00:26:38;;;;;;;0.30;0.30;;;;;;;;;;4147473;28;20112;-41
2022/09/12 00:28:40;;;;;;;0.38;0.30;;;;;;;;;;4145932;28;20054;-42
2022/09/12 00:30:46;;;;;;;0.40;0.40;;;;;;;;;;4145874;28;20058;-41
2022/09/12 00:32:48;;;;;;;0.57;0.45;;;;;;;;;;4148285;28;20050;-42
2022/09/12 00:34:49;;;;;;;0.20;0.20;;;;;;;;;;4149422;28;20104;-41
2022/09/12 00:36:50;;;;;;;0.40;0.30;;;;;;;;;;4148985;28;20109;-41
2022/09/12 00:38:53;;;;;;;0.70;0.30;;;;;;;;;;4149308;28;20577;-41
2022/09/12 00:40:54;;;;;;;0.40;0.40;;;;;;;;;;4148958;28;20054;-42
2022/09/12 00:42:55;;;;;;;0.50;0.50;;;;;;;;;;4131628;28;20077;-42
2022/09/12 00:44:56;;;;;;;0.93;0.43;;;;;;;;;;4149048;28;20062;-42
2022/09/12 00:47:27;;;;;;;0.70;0.50;;;;;;;;;;4149259;28;20108;-42
2022/09/12 00:49:31;;;;;;;0.30;0.30;;;;;;;;;;4148136;28;20064;-42
2022/09/12 00:51:33;;;;;;;0.30;0.30;;;;;;;;;;4148765;28;20120;-41
2022/09/12 00:53:34;;;;;;;0.73;0.43;;;;;;;;;;4131236;28;20449;-41
2022/09/12 00:55:41;;;;;;;0.82;0.52;;;;;;;;;;4148856;28;20120;-42
2022/09/12 00:57:49;;;;;;;0.50;0.40;;;;;;;;;;4148593;28;20092;-41
2022/09/12 01:00:14;;;;;;;0.63;0.32;;;;;;;;;;4147512;28;20050;-41
2022/09/12 01:02:15;;;;;;;0.80;0.60;;;;;;;;;;4148153;28;20555;-43
2022/09/12 01:04:19;;;;;;;0.57;0.38;;;;;;;;;;4148353;28;20058;-42
2022/09/12 01:06:34;;;;;;;0.45;0.40;;;;;;;;;;4148817;28;20108;-42
2022/09/12 01:08:36;;;;;;;0.60;0.60;;;;;;;;;;4147340;28;20057;-42
2022/09/12 01:10:39;;;;;;;0.50;0.50;;;;;;;;;;4148680;28;20061;-42
2022/09/12 01:12:42;;;;;;;0.68;0.30;;;;;;;;;;4147329;28;20050;-42
2022/09/12 01:14:43;;;;;;;0.50;0.40;;;;;;;;;;4148518;28;20061;-43
2022/09/12 01:16:45;;;;;;;0.40;0.40;;;;;;;;;;4148663;28;20077;-42
2022/09/12 01:18:57;;;;;;;0.50;0.40;;;;;;;;;;4147868;28;20452;-42
2022/09/12 01:21:17;;;;;;;0.73;0.40;;;;;;;;;;4147240;28;20053;-42
2022/09/12 01:23:40;;;;;;;0.30;0.30;;;;;;;;;;4147200;28;20116;-42
2022/09/12 01:26:19;;;;;;;0.38;0.30;;;;;;;;;;4148407;28;20169;-42
2022/09/12 01:28:39;;;;;;;0.73;0.47;;;;;;;;;;4148210;28;20529;-43
2022/09/12 01:30:44;;;;;;;;;;;;;;;;;;4149087;28;20176;-42
2022/09/12 01:32:58;;;;;;;0.77;0.63;;;;;;;;;;4147869;28;20328;-42
2022/09/12 01:35:05;;;;;;;0.82;0.52;;;;;;;;;;4147319;28;20053;-42
2022/09/12 01:37:37;;;;;;;0.35;0.30;;;;;;;;;;4148284;28;20054;-41
2022/09/12 01:40:02;;;;;;;0.50;0.38;;;;;;;;;;4148410;28;20103;-41
2022/09/12 01:42:11;;;;;;;0.50;0.50;;;;;;;;;;4146610;28;20053;-42
2022/09/12 01:44:19;;;;;;;0.45;0.40;;;;;;;;;;4146828;28;20066;-43
2022/09/12 01:46:26;;;;;;;0.90;0.50;;;;;;;;;;4148044;28;20476;-42
2022/09/12 01:48:56;;;;;;;0.50;0.40;;;;;;;;;;4147601;28;20112;-42
2022/09/12 01:51:22;;;;;;;0.40;0.40;;;;;;;;;;4148216;28;20064;-42
2022/09/12 01:53:30;;;;;;;0.57;0.50;;;;;;;;;;4147893;28;20084;-41
2022/09/12 01:55:45;;;;;;;0.47;0.40;;;;;;;;;;4147974;28;20054;-41
2022/09/12 01:57:59;;;;;;;0.52;0.50;;;;;;;;;;4130416;28;20404;-41
2022/09/12 02:00:05;;;;;;;0.50;0.40;;;;;;;;;;4146967;28;20062;-41
2022/09/12 02:02:20;;;;;;;0.70;0.43;;;;;;;;;;4147322;28;20119;-41
2022/09/12 02:04:31;;;;;;;0.38;0.32;;;;;;;;;;4147970;28;20104;-41
2022/09/12 02:06:39;;;;;;;0.68;0.40;;;;;;;;;;4146721;28;20058;-41
2022/09/12 02:08:45;;;;;;;0.30;0.30;;;;;;;;;;4147706;28;20058;-41
2022/09/12 02:10:54;;;;;;;0.25;0.25;;;;;;;;;;4146500;28;20492;-41
2022/09/12 02:13:05;;;;;;;0.50;0.40;;;;;;;;;;4147853;28;20060;-41
2022/09/12 02:15:07;;;;;;;0.73;0.40;;;;;;;;;;4147672;28;20050;-41
2022/09/12 02:17:12;;;;;;;0.40;0.35;;;;;;;;;;4147188;28;20046;-41
2022/09/12 02:19:19;;;;;;;0.70;0.50;;;;;;;;;;4147448;28;20054;-41
2022/09/12 02:21:21;;;;;;;0.63;0.43;;;;;;;;;;4146243;28;20058;-41
2022/09/12 02:23:26;;;;;;;0.95;0.45;;;;;;;;;;4146172;28;20061;-41
2022/09/12 02:25:28;;;;;;;0.57;0.47;;;;;;;;;;4130023;28;20089;-41
2022/09/12 02:27:36;;;;;;;0.30;0.30;;;;;;;;;;4146085;28;20509;-41
2022/09/12 02:29:37;;;;;;;0.70;0.55;;;;;;;;;;4147637;28;20164;-41
2022/09/12 02:31:41;;;;;;;0.68;0.40;;;;;;;;;;4147537;28;20061;-41
2022/09/12 02:33:53;;;;;;;0.88;0.50;;;;;;;;;;4138806;28;20069;-41
2022/09/12 02:36:05;;;;;;;0.45;0.40;;;;;;;;;;4131045;28;20109;-41
2022/09/12 02:38:10;;;;;;;0.40;0.40;;;;;;;;;;4113907;28;20051;-41
2022/09/12 02:40:11;;;;;;;0.50;0.38;;;;;;;;;;4129833;28;20498;-41
2022/09/12 02:42:13;;;;;;;0.65;0.43;;;;;;;;;;4130803;28;20180;-41
2022/09/12 02:44:14;;;;;;;0.40;0.40;;;;;;;;;;4131009;28;20054;-42
2022/09/12 02:46:22;;;;;;;0.35;0.35;;;;;;;;;;4130905;28;20050;-42
2022/09/12 02:48:28;;;;;;;0.30;0.30;;;;;;;;;;4129275;28;20461;-42
2022/09/12 02:50:29;;;;;;;0.30;0.22;;;;;;;;;;4138647;28;20053;-42
2022/09/12 02:52:31;;;;;;;0.50;0.50;;;;;;;;;;4145636;28;20157;-42
2022/09/12 02:54:32;;;;;;;0.73;0.50;;;;;;;;;;4145179;28;20066;-41
2022/09/12 02:56:34;;;;;;;0.70;0.40;;;;;;;;;;4147055;28;20485;-41
2022/09/12 02:58:35;;;;;;;0.60;0.40;;;;;;;;;;4146994;28;20413;-42
2022/09/12 03:00:45;;;;;;;1.20;0.57;;;;;;;;;;4147168;28;20069;-41
2022/09/12 03:03:28;;;;;;;0.50;0.40;;;;;;;;;;4146522;28;20053;-41
2022/09/12 03:05:31;;;;;;;0.30;0.30;;;;;;;;;;4147022;28;20080;-42
2022/09/12 03:07:58;;;;;;;0.55;0.38;;;;;;;;;;4145248;28;20084;-42
2022/09/12 03:10:02;;;;;;;0.30;0.30;;;;;;;;;;4145629;28;20080;-41
2022/09/12 03:12:21;;;;;;;0.60;0.40;;;;;;;;;;4146690;28;20159;-42
2022/09/12 03:14:35;;;;;;;0.90;0.40;;;;;;;;;;4146415;28;20061;-42
2022/09/12 03:17:15;;;;;;;0.80;0.50;;;;;;;;;;4129304;28;20054;-42
2022/09/12 03:19:19;;;;;;;;;;;;;;;;;;4146651;28;20112;-42
2022/09/12 03:21:26;;;;;;;0.93;0.50;;;;;;;;;;4146863;28;19928;-41
2022/09/12 03:23:35;;;;;;;0.60;0.60;;;;;;;;;;4145444;28;20046;-42
2022/09/12 03:25:43;;;;;;;0.52;0.40;;;;;;;;;;4161885;28;20088;-41
2022/09/12 03:27:57;;;;;;;0.82;0.60;;;;;;;;;;4145613;28;20092;-42
2022/09/12 03:29:59;;;;;;;0.60;0.50;;;;;;;;;;4145544;28;20591;-42
2022/09/12 03:32:00;;;;;;;0.70;0.50;;;;;;;;;;4145504;28;20108;-42
2022/09/12 03:34:01;;;;;;;0.60;0.40;;;;;;;;;;4146340;28;20453;-41
2022/09/12 03:36:03;;;;;;;0.82;0.50;;;;;;;;;;4146760;28;20112;-41
2022/09/12 03:38:06;;;;;;;0.52;0.43;;;;;;;;;;4145239;28;20429;-42
2022/09/12 03:40:09;;;;;;;0.57;0.40;;;;;;;;;;4146779;28;20057;-42
2022/09/12 03:42:10;;;;;;;0.70;0.40;;;;;;;;;;4129131;28;20113;-42
2022/09/12 03:44:11;;;;;;;0.70;0.60;;;;;;;;;;4146703;28;20053;-42
2022/09/12 03:46:12;;;;;;;1.10;0.40;;;;;;;;;;4146092;28;20054;-42
2022/09/12 03:48:13;;;;;;;0.50;0.30;;;;;;;;;;4144792;28;20357;-42
2022/09/12 03:50:15;;;;;;;0.45;0.45;;;;;;;;;;4145786;28;20050;-41
2022/09/12 03:52:16;;;;;;;1.00;0.40;;;;;;;;;;4145986;28;20053;-42
2022/09/12 03:54:17;;;;;;;0.30;0.30;;;;;;;;;;4146122;28;20438;-42
2022/09/12 03:56:18;;;;;;;0.50;0.40;;;;;;;;;;4146282;28;20080;-42
2022/09/12 03:58:20;;;;;;;0.65;0.50;;;;;;;;;;4144535;28;20050;-42
2022/09/12 04:00:21;;;;;;;0.77;0.60;;;;;;;;;;4145144;28;20057;-42
2022/09/12 04:02:22;;;;;;;0.85;0.45;;;;;;;;;;4144590;28;20109;-42
2022/09/12 04:04:23;;;;;;;1.08;0.40;;;;;;;;;;4146217;28;20104;-42
2022/09/12 04:06:25;;;;;;;0.52;0.52;;;;;;;;;;4148059;28;20065;-42
2022/09/12 04:08:27;;;;;;;0.40;0.40;;;;;;;;;;4149574;28;20111;-42
2022/09/12 04:10:30;;;;;;;1.15;0.32;;;;;;;;;;4149162;28;20069;-47
2022/09/12 04:12:31;;;;;;;0.82;0.70;;;;;;;;;;4148575;28;20111;-42
2022/09/12 04:14:32;;;;;;;0.60;0.30;;;;;;;;;;4149041;28;20107;-42
2022/09/12 04:16:34;;;;;;;0.50;0.50;;;;;;;;;;4149443;28;20062;-42
2022/09/12 04:18:35;;;;;;;1.15;0.68;;;;;;;;;;4148987;28;20054;-41
2022/09/12 04:20:36;;;;;;;0.85;0.60;;;;;;;;;;4149627;28;20116;-47
2022/09/12 04:22:38;;;;;;;0.90;0.80;;;;;;;;;;4149432;28;20452;-42
2022/09/12 04:24:39;;;;;;;0.70;0.60;;;;;;;;;;4148556;28;20057;-42
2022/09/12 04:26:40;;;;;;;1.13;0.85;;;;;;;;;;4147893;28;20050;-42
2022/09/12 04:28:42;;;;;;;0.85;0.60;;;;;;;;;;4147928;28;20064;-42
2022/09/12 04:30:43;;;;;;;0.70;0.55;;;;;;;;;;4147806;28;20498;-42
2022/09/12 04:32:44;;;;;;;0.52;0.50;;;;;;;;;;4147613;28;20093;-42
2022/09/12 04:34:46;;;;;;;0.57;0.57;;;;;;;;;;4148187;28;20054;-41
2022/09/12 04:36:47;;;;;;;1.02;0.63;;;;;;;;;;4147852;28;20551;-41
2022/09/12 04:38:48;;;;;;;0.98;0.70;;;;;;;;;;4148054;28;20058;-41
2022/09/12 04:40:50;;;;;;;0.82;0.63;;;;;;;;;;4148539;28;20064;-41
2022/09/12 04:42:51;;;;;;;0.80;0.60;;;;;;;;;;4148823;28;20405;-41
2022/09/12 04:44:53;;;;;;;1.20;0.80;;;;;;;;;;4148799;28;20061;-44
2022/09/12 04:46:54;;;;;;;0.88;0.80;;;;;;;;;;4147821;28;20080;-41
2022/09/12 04:48:55;;;;;;;0.73;0.63;;;;;;;;;;4148266;28;20152;-42
2022/09/12 04:51:15;;;;;;;0.80;0.65;;;;;;;;;;4148985;28;20054;-42
2022/09/12 04:53:16;;;;;;;0.80;0.70;;;;;;;;;;4148799;28;20053;-41
2022/09/12 04:55:17;;;;;;;1.00;0.80;;;;;;;;;;4148633;28;20128;-41
2022/09/12 04:57:18;;;;;;;1.08;0.93;;;;;;;;;;4148646;28;20401;-41
2022/09/12 04:59:20;;;;;;;0.77;0.70;;;;;;;;;;4148941;28;20115;-41
2022/09/12 05:01:22;;;;;;;0.80;0.70;;;;;;;;;;4136635;28;20434;-41
2022/09/12 05:03:23;;;;;;;0.75;0.70;;;;;;;;;;4140123;28;20509;-41
2022/09/12 05:05:24;;;;;;;0.50;0.40;;;;;;;;;;4146607;28;20061;-41
2022/09/12 05:07:25;;;;;;;1.00;0.70;;;;;;;;;;4146460;28;20504;-41
2022/09/12 05:09:28;;;;;;;1.23;0.93;;;;;;;;;;4146374;28;20181;-41
2022/09/12 05:11:32;;;;;;;1.05;0.60;;;;;;;;;;4145097;28;20057;-41
2022/09/12 05:13:33;;;;;;;1.48;0.80;;;;;;;;;;4146369;28;20453;-41
2022/09/12 05:15:34;;;;;;;0.90;0.70;;;;;;;;;;4146434;28;20058;-41
2022/09/12 05:17:35;;;;;;;0.85;0.70;;;;;;;;;;4145561;28;20108;-41
2022/09/12 05:19:37;;;;;;;1.17;0.82;;;;;;;;;;4145508;28;20054;-42
2022/09/12 05:21:39;;;;;;;0.75;0.65;;;;;;;;;;4158403;28;20426;-41
2022/09/12 05:23:40;;;;;;;1.90;0.90;;;;;;;;;;4143853;28;20049;-42
2022/09/12 05:25:51;;;;;;;0.80;0.68;;;;;;;;;;4137072;28;20583;-43
2022/09/12 05:27:53;;;;;;;0.90;0.70;;;;;;;;;;4141842;28;20098;-42
2022/09/12 05:29:54;;;;;;;0.82;0.65;;;;;;;;;;4141998;28;20100;-41
2022/09/12 05:31:55;;;;;;;2.17;1.00;;;;;;;;;;4143793;28;20564;-41
2022/09/12 05:33:57;;;;;;;0.75;0.73;;;;;;;;;;4143266;28;20435;-41
2022/09/12 05:35:58;;;;;;;0.90;0.63;;;;;;;;;;4143268;28;20061;-42
2022/09/12 05:37:59;;;;;;;1.17;1.00;;;;;;;;;;4143789;28;20045;-42
2022/09/12 05:40:04;;;;;;;1.20;0.95;;;;;;;;;;4142278;28;20057;-41
2022/09/12 05:42:05;;;;;;;1.23;0.68;;;;;;;;;;4144053;28;20054;-41
2022/09/12 05:44:10;;;;;;;0.95;0.77;;;;;;;;;;4144087;28;20089;-41
2022/09/12 05:46:16;;;;;;;0.88;0.70;;;;;;;;;;4140528;28;20108;-41
2022/09/12 05:48:17;;;;;;;1.35;0.90;;;;;;;;;;4142289;28;20629;-41
2022/09/12 05:50:19;;;;;;;1.20;0.90;;;;;;;;;;4139434;28;20502;-42
2022/09/12 05:52:24;;;;;;;2.72;0.95;;;;;;;;;;4117904;28;20050;-41
2022/09/12 05:54:26;;;;;;;1.20;0.77;;;;;;;;;;4139970;28;20127;-42
2022/09/12 05:56:30;;;;;;;1.25;1.00;;;;;;;;;;4138652;28;20432;-41
2022/09/12 05:58:31;;;;;;;1.17;0.80;;;;;;;;;;4137153;28;20624;-41
2022/09/12 06:00:32;;;;;;;1.13;1.02;;;;;;;;;;4133594;28;20049;-41
2022/09/12 06:02:33;;;;;;;1.58;0.80;;;;;;;;;;4136282;28;20054;-42
2022/09/12 06:04:35;;;;;;;1.30;0.80;;;;;;;;;;4138464;28;20073;-42
2022/09/12 06:06:40;;;;;;;1.88;0.98;;;;;;;;;;4137508;28;20130;-42
2022/09/12 06:08:44;;;;;;;1.67;1.00;;;;;;;;;;4118349;28;20054;-41
2022/09/12 06:10:45;;;;;;;1.30;1.00;;;;;;;;;;4133474;28;20472;-41
2022/09/12 06:12:46;;;;;;;1.10;0.90;;;;;;;;;;4136815;28;20369;-41
2022/09/12 06:14:48;;;;;;;0.82;0.63;;;;;;;;;;4134398;28;20119;-41
2022/09/12 06:16:49;;;;;;;4.05;1.00;;;;;;;;;;4135747;28;20057;-41
2022/09/12 06:18:55;;;;;;;8.55;0.88;;;;;;;;;;4130506;28;20062;-40
2022/09/12 06:20:56;;;;;;;1.08;0.80;;;;;;;;;;4121880;28;20062;-40
2022/09/12 06:22:58;;;;;;;3.17;0.80;;;;;;;;;;4109115;28;21585;-42
2022/09/12 06:24:59;;;;;;;1.60;1.08;;;;;;;;;;4106988;28;20057;-43
2022/09/12 06:27:01;;;;;;;3.63;1.08;;;;;;;;;;4125938;28;20543;-40
2022/09/12 06:29:02;;;;;;;1.65;0.90;;;;;;;;;;4120891;28;20108;-42
2022/09/12 06:31:05;;;;;;;1.15;0.85;;;;;;;;;;4124698;28;20053;-42
2022/09/12 06:33:06;;;;;;;1.17;0.80;;;;;;;;;;4108480;28;20058;-41
2022/09/12 06:35:08;;;;;;;1.92;0.88;;;;;;;;;;4108972;28;20819;-41
2022/09/12 06:37:10;;;;;;;1.40;0.90;;;;;;;;;;4114942;28;20072;-43
2022/09/12 06:39:13;;;;;;;1.45;0.77;;;;;;;;;;4129598;28;20057;-42
2022/09/12 06:41:14;;;;;;;1.25;1.10;;;;;;;;;;4134772;28;20920;-43
2022/09/12 06:43:15;;;;;;;1.67;0.90;;;;;;;;;;4119615;28;20061;-42
2022/09/12 06:45:18;;;;;;;3.00;1.05;;;;;;;;;;4123492;28;20058;-41
2022/09/12 06:47:20;;;;;;;1.30;0.90;;;;;;;;;;4122208;28;20088;-41
2022/09/12 06:49:21;;;;;;;1.40;0.88;;;;;;;;;;4122882;28;20409;-42
2022/09/12 06:51:22;;;;;;;2.53;1.00;;;;;;;;;;4113881;28;20321;-41
2022/09/12 06:53:24;;;;;;;1.10;0.80;;;;;;;;;;4115275;28;20062;-40
2022/09/12 06:55:25;;;;;;;2.33;1.05;;;;;;;;;;4108526;28;20054;-41
2022/09/12 06:57:29;;;;;;;1.42;1.08;;;;;;;;;;4120747;28;20057;-40
2022/09/12 06:59:30;;;;;;;1.13;0.90;;;;;;;;;;4116073;28;20508;-43
2022/09/12 07:01:31;;;;;;;1.30;0.73;;;;;;;;;;4109902;28;20058;-41
2022/09/12 07:03:33;;;;;;;1.50;0.93;;;;;;;;;;4094572;28;20057;-42
2022/09/12 07:05:36;;;;;;;4.53;1.08;;;;;;;;;;4088843;28;20161;-43
2022/09/12 07:07:37;;;;;;;1.90;1.13;;;;;;;;;;4103553;28;20057;-43
2022/09/12 07:09:39;;;;;;;1.08;0.95;;;;;;;;;;4100810;28;20084;-43
2022/09/12 07:11:40;;;;;;;1.55;1.15;;;;;;;;;;4094618;28;20156;-43
2022/09/12 07:13:45;;;;;;;1.83;0.73;;;;;;;;;;4101189;28;20116;-40
2022/09/12 07:15:46;;;;;;;3.15;1.40;;;;;;;;;;4084445;28;22575;-41
2022/09/12 07:17:47;;;;;;;2.00;1.00;;;;;;;;;;4102523;28;20108;-41
2022/09/12 07:19:48;;;;;;;2.17;1.10;;;;;;;;;;4110690;28;20062;-41
2022/09/12 07:21:49;;;;;;;4.60;1.20;;;;;;;;;;4105831;28;20075;-41
2022/09/12 07:23:51;;;;;;;1.85;1.10;;;;;;;;;;4111880;28;20069;-41
2022/09/12 07:25:55;;;;;;;2.13;1.08;;;;;;;;;;4118761;28;20160;-42
2022/09/12 07:27:56;;;;;;;2.25;1.25;;;;;;;;;;4112971;28;20088;-40
2022/09/12 07:29:57;;;;;;;3.67;1.30;;;;;;;;;;4115080;28;21085;-42
2022/09/12 07:32:00;;;;;;;0.95;0.85;;;;;;;;;;4109310;28;20477;-41
2022/09/12 07:34:05;;;;;;;1.45;0.68;;;;;;;;;;4116618;28;20065;-41
2022/09/12 07:36:10;;;;;;;3.97;1.10;;;;;;;;;;4117689;28;20058;-42
2022/09/12 07:38:11;;;;;;;1.98;0.82;;;;;;;;;;4108640;28;20060;-42
2022/09/12 07:40:12;;;;;;;1.77;0.88;;;;;;;;;;4116191;28;20127;-40
2022/09/12 07:42:14;;;;;;;3.28;1.20;;;;;;;;;;4121226;28;20543;-40
2022/09/12 07:44:16;;;;;;;1.52;1.00;;;;;;;;;;4126717;28;20073;-41
2022/09/12 07:46:17;;;;;;;3.00;0.80;;;;;;;;;;4125548;28;20105;-40
2022/09/12 07:48:18;;;;;;;1.15;0.80;;;;;;;;;;4123085;28;20634;-40
2022/09/12 07:50:20;;;;;;;1.98;0.75;;;;;;;;;;4116491;28;20144;-40
2022/09/12 07:52:21;;;;;;;1.73;0.75;;;;;;;;;;4105531;28;20434;-40
2022/09/12 07:54:23;;;;;;;1.55;0.90;;;;;;;;;;4107324;28;20053;-40
2022/09/12 07:56:26;;;;;;;2.95;1.13;;;;;;;;;;4118572;28;20061;-41
2022/09/12 07:58:27;;;;;;;1.42;0.80;;;;;;;;;;4098442;28;20857;-41
2022/09/12 08:00:34;;;;;;;0.65;0.63;;;;;;;;;;4107600;28;20143;-42
2022/09/12 08:02:35;;;;;;;1.88;1.00;;;;;;;;;;4101836;28;20120;-42
2022/09/12 08:04:37;;;;;;;3.95;1.00;;;;;;;;;;4106308;28;20061;-41
2022/09/12 08:06:38;;;;;;;4.63;0.90;;;;;;;;;;4112093;28;20049;-41
2022/09/12 08:08:40;;;;;;;1.17;0.68;;;;;;;;;;4112357;28;20128;-43
2022/09/12 08:10:41;;;;;;;4.22;0.70;;;;;;;;;;4114250;28;20489;-42
2022/09/12 08:12:42;;;;;;;2.40;0.60;;;;;;;;;;4107124;28;20521;-42
2022/09/12 08:14:44;;;;;;;1.02;0.73;;;;;;;;;;4107185;28;20058;-42
2022/09/12 08:16:46;;;;;;;0.90;0.60;;;;;;;;;;4111818;28;20138;-42
2022/09/12 08:18:48;;;;;;;1.17;0.60;;;;;;;;;;4106432;28;20049;-42
2022/09/12 08:20:56;;;;;;;0.70;0.70;;;;;;;;;;4109031;28;20144;-40
2022/09/12 08:22:57;;;;;;;2.60;0.63;;;;;;;;;;4118590;28;20096;-41
2022/09/12 08:24:58;;;;;;;1.60;0.88;;;;;;;;;;4113026;28;20065;-42
2022/09/12 08:26:59;;;;;;;0.75;0.60;;;;;;;;;;4115394;28;20746;-42
2022/09/12 08:29:03;;;;;;;1.92;0.93;;;;;;;;;;4112021;28;20622;-42
2022/09/12 08:31:06;;;;;;;1.33;0.80;;;;;;;;;;4115183;28;20057;-42
2022/09/12 08:33:07;;;;;;;1.50;0.75;;;;;;;;;;4118424;28;20069;-42
2022/09/12 08:35:08;;;;;;;1.55;0.65;;;;;;;;;;4107140;28;20520;-42
2022/09/12 08:37:10;;;;;;;2.88;0.73;;;;;;;;;;4116941;28;20061;-42
2022/09/12 08:39:11;;;;;;;0.88;0.57;;;;;;;;;;4105378;28;20138;-42
2022/09/12 08:41:23;;;;;;;1.60;0.80;;;;;;;;;;4104412;28;20496;-42
2022/09/12 08:43:44;;;;;;;1.02;0.70;;;;;;;;;;4111039;28;20066;-41
2022/09/12 08:45:53;;;;;;;3.20;0.63;;;;;;;;;;4089135;28;20058;-42
2022/09/12 08:47:55;;;;;;;2.55;0.70;;;;;;;;;;4120161;28;20053;-41
2022/09/12 08:50:09;;;;;;;0.82;0.50;;;;;;;;;;4113698;28;20065;-43
2022/09/12 08:52:18;;;;;;;1.05;0.75;;;;;;;;;;4117963;28;20152;-42
2022/09/12 08:54:28;;;;;;;1.80;0.73;;;;;;;;;;4090937;28;20204;-42
2022/09/12 08:56:34;;;;;;;2.72;0.60;;;;;;;;;;4094315;28;20116;-46
2022/09/12 08:58:39;;;;;;;1.40;0.80;;;;;;;;;;4104542;28;20054;-43
2022/09/12 09:00:49;;;;;;;1.70;0.88;;;;;;;;;;4100837;28;20135;-44
2022/09/12 09:03:00;;;;;;;4.13;0.75;;;;;;;;;;4087787;28;20345;-44
2022/09/12 09:05:10;;;;;;;4.25;0.70;;;;;;;;;;4113295;28;20087;-44
2022/09/12 09:07:27;;;;;;;1.55;0.70;;;;;;;;;;4098450;28;20064;-44
2022/09/12 09:09:50;;;;;;;1.20;0.70;;;;;;;;;;4101602;28;20349;-45
2022/09/12 09:12:03;;;;;;;1.63;0.90;;;;;;;;;;4109426;28;20058;-44
2022/09/12 09:14:47;;;;;;;1.30;0.80;;;;;;;;;;4130838;28;20103;-44
2022/09/12 09:17:11;;;;;;;2.30;0.80;;;;;;;;;;4114329;28;20501;-46
2022/09/12 09:19:23;;;;;;;0.85;0.55;;;;;;;;;;4115385;28;20448;-42
2022/09/12 09:21:30;;;;;;;1.92;0.80;;;;;;;;;;4107094;28;20053;-44
2022/09/12 09:23:35;;;;;;;0.75;0.68;;;;;;;;;;4108419;28;20058;-42
2022/09/12 09:25:48;;;;;;;2.58;0.73;;;;;;;;;;4109643;28;20625;-42
2022/09/12 09:27:56;;;;;;;1.10;0.77;;;;;;;;;;4095699;28;20588;-42
2022/09/12 09:29:58;;;;;;;2.42;0.70;;;;;;;;;;4095027;28;20522;-43
2022/09/12 09:32:00;;;;;;;2.38;0.80;;;;;;;;;;4109764;28;20499;-42
2022/09/12 09:34:09;;;;;;;2.25;0.63;;;;;;;;;;4107885;28;20097;-42
2022/09/12 09:36:48;;;;;;;2.65;0.63;;;;;;;;;;4105040;28;20905;-42
2022/09/12 09:38:53;;;;;;;1.50;0.63;;;;;;;;;;4110156;28;20388;-42
2022/09/12 09:41:07;;;;;;;0.93;0.70;;;;;;;;;;4108547;28;20117;-42
2022/09/12 09:43:18;;;;;;;0.90;0.75;;;;;;;;;;4112818;28;20058;-42
2022/09/12 09:45:22;;;;;;;0.93;0.60;;;;;;;;;;4099652;28;20054;-42
2022/09/12 09:47:24;;;;;;;2.25;0.57;;;;;;;;;;4109913;28;20121;-44
2022/09/12 09:49:30;;;;;;;0.90;0.50;;;;;;;;;;4114503;28;20607;-43
2022/09/12 09:51:41;;;;;;;0.65;0.50;;;;;;;;;;4113913;28;20057;-43
2022/09/12 09:53:48;;;;;;;1.20;0.80;;;;;;;;;;4116025;28;20061;-44
2022/09/12 09:55:50;;;;;;;4.10;0.68;;;;;;;;;;4114241;28;20680;-43
2022/09/12 09:57:52;;;;;;;1.33;0.80;;;;;;;;;;4116513;28;20132;-43
2022/09/12 09:59:53;;;;;;;1.17;0.80;;;;;;;;;;4111930;28;20112;-44
2022/09/12 10:02:16;;;;;;;3.38;0.80;;;;;;;;;;4116346;28;20061;-43
2022/09/12 10:04:31;;;;;;;1.42;0.70;;;;;;;;;;4107819;28;20105;-43
2022/09/12 10:06:34;;;;;;;0.95;0.60;;;;;;;;;;4116180;28;21374;-46
2022/09/12 10:08:36;;;;;;;2.15;0.70;;;;;;;;;;4111176;28;20532;-45
2022/09/12 10:10:52;;;;;;;1.52;0.75;;;;;;;;;;4117011;28;20615;-44
2022/09/12 10:13:08;;;;;;;1.00;0.45;;;;;;;;;;4124463;28;21183;-46
2022/09/12 10:15:21;;;;;;;0.80;0.60;;;;;;;;;;4121657;28;20054;-44
2022/09/12 10:17:38;;;;;;;1.20;0.80;;;;;;;;;;4120860;28;20058;-44
2022/09/12 10:19:40;;;;;;;2.75;0.47;;;;;;;;;;4123239;28;20054;-44
2022/09/12 10:21:47;;;;;;;1.25;0.95;;;;;;;;;;4116444;28;20144;-44
2022/09/12 10:23:52;;;;;;;0.55;0.52;;;;;;;;;;4116927;28;21093;-45
2022/09/12 10:25:57;;;;;;;2.38;0.70;;;;;;;;;;4123069;28;21902;-46
2022/09/12 10:27:59;;;;;;;0.90;0.68;;;;;;;;;;4116152;28;20497;-42
2022/09/12 10:30:03;;;;;;;2.45;0.40;;;;;;;;;;4124235;28;20365;-42
2022/09/12 10:32:07;;;;;;;2.53;1.27;;;;;;;;;;4101637;28;20192;-42
2022/09/12 10:34:19;;;;;;;1.65;0.47;;;;;;;;;;4118657;28;20053;-43
2022/09/12 10:36:22;;;;;;;1.45;0.50;;;;;;;;;;4110714;28;21036;-44
2022/09/12 10:38:26;;;;;;;1.13;0.70;;;;;;;;;;4116144;28;20096;-43
2022/09/12 10:40:31;;;;;;;1.55;0.68;;;;;;;;;;4107031;28;20459;-44
2022/09/12 10:42:45;;;;;;;0.57;0.40;;;;;;;;;;4112280;28;20156;-42
2022/09/12 10:44:52;;;;;;;0.98;0.63;;;;;;;;;;4115842;28;20066;-42
2022/09/12 10:46:54;;;;;;;1.13;0.63;;;;;;;;;;4117020;28;20481;-42
2022/09/12 10:49:23;;;;;;;1.00;0.57;;;;;;;;;;4111518;28;20179;-42
2022/09/12 10:51:24;;;;;;;1.48;0.60;;;;;;;;;;4112407;28;20066;-43
2022/09/12 10:53:39;;;;;;;0.60;0.43;;;;;;;;;;4109544;28;20418;-42
2022/09/12 10:56:07;;;;;;;1.88;0.50;;;;;;;;;;4112903;28;20067;-43
2022/09/12 10:58:26;;;;;;;2.25;0.55;;;;;;;;;;4115158;28;20100;-42
2022/09/12 11:00:29;;;;;;;2.92;0.60;;;;;;;;;;4102453;28;20064;-42
2022/09/12 11:03:10;;;;;;;0.50;0.45;;;;;;;;;;4099679;28;20147;-42
2022/09/12 11:05:18;;;;;;;;;;;;;;;;;;4110125;28;20062;-41
2022/09/12 11:07:51;;;;;;;0.30;0.30;;;;;;;;;;4113710;28;19999;-42
2022/09/12 11:10:14;;;;;;;1.98;0.68;;;;;;;;;;4115086;28;20116;-42
2022/09/12 11:12:37;;;;;;;2.40;0.68;;;;;;;;;;4110852;28;20988;-42
2022/09/12 11:14:55;;;;;;;1.65;0.70;;;;;;;;;;4117598;28;20058;-43
2022/09/12 11:17:16;;;;;;;0.98;0.50;;;;;;;;;;4107109;28;20897;-45
2022/09/12 11:19:46;;;;;;;1.02;0.40;;;;;;;;;;4115618;28;20050;-44
2022/09/12 11:22:07;;;;;;;0.95;0.60;;;;;;;;;;4111433;28;20065;-43
2022/09/12 11:24:26;;;;;;;3.25;0.60;;;;;;;;;;4104205;28;21464;-46
2022/09/12 11:26:52;;;;;;;0.87;0.60;;;;;;;;;;4116288;28;20111;-44
2022/09/12 11:29:01;;;;;;;1.13;0.50;;;;;;;;;;4115290;28;20537;-45
2022/09/12 11:31:17;;;;;;;0.93;0.70;;;;;;;;;;4111126;28;20169;-43
2022/09/12 11:33:45;;;;;;;0.65;0.50;;;;;;;;;;4121118;28;20578;-45
2022/09/12 11:35:49;;;;;;;0.80;0.50;;;;;;;;;;4114089;28;20923;-44
2022/09/12 11:38:02;;;;;;;1.38;0.60;;;;;;;;;;4108455;28;20121;-44
2022/09/12 11:40:21;;;;;;;1.33;0.50;;;;;;;;;;4120720;28;20561;-45
2022/09/12 11:42:32;;;;;;;0.93;0.73;;;;;;;;;;4114488;28;20176;-47
2022/09/12 11:44:37;;;;;;;2.00;0.55;;;;;;;;;;4117617;28;20167;-46
2022/09/12 11:46:41;;;;;;;1.98;0.50;;;;;;;;;;4115677;28;20108;-44
2022/09/12 11:48:47;;;;;;;1.25;0.50;;;;;;;;;;4114481;28;21080;-46
2022/09/12 11:50:49;;;;;;;0.30;0.30;;;;;;;;;;4113234;28;20131;-43
2022/09/12 11:52:52;;;;;;;1.73;0.50;;;;;;;;;;4110918;28;20481;-42
2022/09/12 11:55:01;;;;;;;5.00;0.70;;;;;;;;;;4111836;28;20349;-44
2022/09/12 11:57:24;;;;;;;0.45;0.45;;;;;;;;;;4113129;28;21573;-43
2022/09/12 11:59:38;;;;;;;3.92;0.50;;;;;;;;;;4102006;28;20128;-43
2022/09/12 12:01:40;;;;;;;0.70;0.50;;;;;;;;;;4110768;28;21397;-44
2022/09/12 12:03:44;;;;;;;0.50;0.50;;;;;;;;;;4109751;28;20061;-43
2022/09/12 12:06:04;;;;;;;2.97;0.50;;;;;;;;;;4116141;28;20160;-43
2022/09/12 12:08:06;;;;;;;1.50;0.50;;;;;;;;;;4119636;28;20848;-43
2022/09/12 12:10:37;;;;;;;1.40;0.50;;;;;;;;;;4113261;28;20066;-43
2022/09/12 12:12:40;;;;;;;1.38;0.55;;;;;;;;;;4124179;28;20058;-43
2022/09/12 12:14:47;;;;;;;0.95;0.70;;;;;;;;;;4115805;28;20109;-45
2022/09/12 12:16:48;;;;;;;0.80;0.55;;;;;;;;;;4121464;28;20058;-44
2022/09/12 12:19:00;;;;;;;2.20;0.50;;;;;;;;;;4119240;28;20102;-43
2022/09/12 12:21:25;;;;;;;1.15;0.40;;;;;;;;;;4126268;28;20538;-44
2022/09/12 12:23:34;;;;;;;0.70;0.50;;;;;;;;;;4136262;28;20057;-45
2022/09/12 12:25:50;;;;;;;1.00;0.60;;;;;;;;;;4122017;28;20678;-44
2022/09/12 12:28:01;;;;;;;2.55;0.45;;;;;;;;;;4122440;28;20113;-47
2022/09/12 12:30:02;;;;;;;0.77;0.60;;;;;;;;;;4130119;28;20049;-44
2022/09/12 12:32:03;;;;;;;1.88;0.60;;;;;;;;;;4121104;28;20108;-44
2022/09/12 12:34:21;;;;;;;1.23;0.60;;;;;;;;;;4117949;28;20258;-44
2022/09/12 12:36:33;;;;;;;0.60;0.50;;;;;;;;;;4121321;28;20552;-44
2022/09/12 12:38:39;;;;;;;1.00;0.80;;;;;;;;;;4134901;28;20049;-43